Etusivu
METAR-TAF:

METAR-TAF

Lentoasemat :

McGregor Executive Airport

Waco, Texas, Yhdysvallat

Leveyspiiri: 31-29N, Pituuspiiri: 097-19W, korkeus merenpinnasta: 180 m

Tämänhetkinen sää

Tämä raportti tehtiin 4 tuntia ja 6 minuuttia sitten, kello 12.56 UTC
Tuuli 12 kn etelästä puuskistuen 17 kn:hen
Lämpötila 26°C
Kosteus 84%
Ilmanpaine 1010 hPa
Näkyvyys: 16.1 km
selkeää

METAR: KPWG 201256Z AUTO 17012G17KT 10SM CLR 26/23 A2983 RMK AO2 SLP103 T02610233

Aika: 12:02 (17:02 UTC)


TAF: puuttuu

Säähavainnot ja -ennusteet yli 4000 lentoasemalta (METAR- ja TAF-raportit).

Käytössä olevat sääasemat on merkitty karttaan keltaisilla ja punaisilla pisteillä.

Aseta hiiri pisteen päälle nähdäksesi sääaseman nimen.

Klikkaa sitten nähdäksesi säähavainnot ja -ennusteet.

Kartan vaihtaminen: klikkaa mustalla rastilla varustettuja vihreitä pisteitä, niin voit zoomata sisään; viivalla varustettua vihreää pistettä, niin voit zoomata ulos tai vihreitä nuolia, niin pääset viereisille kartoille.


METAR-TAF: